sensor_id;sensor_type;location;lat;lon;timestamp;pressure;altitude;pressure_sealevel;temperature;humidity
13314;BME280;6725;48.112;11.604;2023-05-09T00:01:37;95615.06;;;11.15;100.00
13314;BME280;6725;48.112;11.604;2023-05-09T00:04:04;95612.78;;;11.10;100.00
13314;BME280;6725;48.112;11.604;2023-05-09T00:06:29;95609.69;;;11.05;100.00
13314;BME280;6725;48.112;11.604;2023-05-09T00:08:56;95611.28;;;10.99;100.00
13314;BME280;6725;48.112;11.604;2023-05-09T00:11:22;95604.25;;;10.98;100.00
13314;BME280;6725;48.112;11.604;2023-05-09T00:13:48;95600.75;;;11.01;100.00
13314;BME280;6725;48.112;11.604;2023-05-09T00:16:15;95599.34;;;11.30;100.00
13314;BME280;6725;48.112;11.604;2023-05-09T00:18:41;95596.16;;;11.38;100.00
13314;BME280;6725;48.112;11.604;2023-05-09T00:21:07;95594.59;;;11.41;100.00
13314;BME280;6725;48.112;11.604;2023-05-09T00:23:34;95602.78;;;11.41;100.00
13314;BME280;6725;48.112;11.604;2023-05-09T00:25:59;95596.94;;;11.39;100.00
13314;BME280;6725;48.112;11.604;2023-05-09T00:28:25;95596.97;;;11.35;100.00
13314;BME280;6725;48.112;11.604;2023-05-09T00:30:50;95582.16;;;11.33;100.00
13314;BME280;6725;48.112;11.604;2023-05-09T00:33:15;95594.69;;;11.27;100.00
13314;BME280;6725;48.112;11.604;2023-05-09T00:35:41;95587.69;;;11.26;100.00
13314;BME280;6725;48.112;11.604;2023-05-09T00:38:06;95577.97;;;11.18;100.00
13314;BME280;6725;48.112;11.604;2023-05-09T00:40:31;95579.97;;;11.14;100.00
13314;BME280;6725;48.112;11.604;2023-05-09T00:43:00;95576.09;;;11.08;100.00
13314;BME280;6725;48.112;11.604;2023-05-09T00:45:25;95570.63;;;11.08;100.00
13314;BME280;6725;48.112;11.604;2023-05-09T00:47:51;95564.78;;;11.06;100.00
13314;BME280;6725;48.112;11.604;2023-05-09T00:50:16;95572.22;;;11.02;100.00
13314;BME280;6725;48.112;11.604;2023-05-09T00:52:42;95563.72;;;10.93;100.00
13314;BME280;6725;48.112;11.604;2023-05-09T00:55:07;95558.41;;;10.68;100.00
13314;BME280;6725;48.112;11.604;2023-05-09T00:57:34;95550.69;;;10.53;100.00
13314;BME280;6725;48.112;11.604;2023-05-09T01:00:00;95539.03;;;10.49;100.00
13314;BME280;6725;48.112;11.604;2023-05-09T01:02:25;95531.63;;;10.46;100.00
13314;BME280;6725;48.112;11.604;2023-05-09T01:04:51;95513.31;;;10.43;100.00
13314;BME280;6725;48.112;11.604;2023-05-09T01:10:41;95495.41;;;10.35;100.00
13314;BME280;6725;48.112;11.604;2023-05-09T01:12:51;95484.50;;;10.35;100.00
13314;BME280;6725;48.112;11.604;2023-05-09T01:15:33;95469.72;;;10.29;100.00
13314;BME280;6725;48.112;11.604;2023-05-09T01:18:24;95458.78;;;10.29;100.00
13314;BME280;6725;48.112;11.604;2023-05-09T01:24:12;95428.44;;;10.20;100.00
13314;BME280;6725;48.112;11.604;2023-05-09T01:29:46;95400.06;;;10.10;100.00
13314;BME280;6725;48.112;11.604;2023-05-09T01:32:22;95399.66;;;10.08;100.00
13314;BME280;6725;48.112;11.604;2023-05-09T01:34:51;95419.16;;;10.06;100.00
13314;BME280;6725;48.112;11.604;2023-05-09T01:37:18;95411.38;;;10.01;100.00
13314;BME280;6725;48.112;11.604;2023-05-09T01:39:47;95399.72;;;9.97;100.00
13314;BME280;6725;48.112;11.604;2023-05-09T01:42:18;95387.25;;;9.96;100.00
13314;BME280;6725;48.112;11.604;2023-05-09T01:44:45;95380.66;;;9.90;100.00
13314;BME280;6725;48.112;11.604;2023-05-09T01:47:12;95385.34;;;9.86;100.00
13314;BME280;6725;48.112;11.604;2023-05-09T01:49:40;95362.38;;;9.84;100.00
13314;BME280;6725;48.112;11.604;2023-05-09T01:52:10;95342.94;;;9.78;100.00
13314;BME280;6725;48.112;11.604;2023-05-09T01:54:36;95332.84;;;9.75;100.00
13314;BME280;6725;48.112;11.604;2023-05-09T01:57:03;95311.41;;;9.70;100.00
13314;BME280;6725;48.112;11.604;2023-05-09T01:59:32;95289.25;;;9.65;100.00
13314;BME280;6725;48.112;11.604;2023-05-09T02:01:58;95270.59;;;9.63;100.00
13314;BME280;6725;48.112;11.604;2023-05-09T02:04:25;95266.69;;;9.64;100.00
13314;BME280;6725;48.112;11.604;2023-05-09T02:06:53;95248.78;;;9.63;100.00
13314;BME280;6725;48.112;11.604;2023-05-09T02:09:19;95243.00;;;9.54;100.00
13314;BME280;6725;48.112;11.604;2023-05-09T02:11:47;95224.69;;;9.51;100.00
13314;BME280;6725;48.112;11.604;2023-05-09T02:14:13;95207.59;;;9.47;100.00
13314;BME280;6725;48.112;11.604;2023-05-09T02:16:38;95191.25;;;9.47;100.00
13314;BME280;6725;48.112;11.604;2023-05-09T02:19:05;95172.97;;;9.44;100.00
13314;BME280;6725;48.112;11.604;2023-05-09T02:21:30;95148.53;;;9.34;100.00
13314;BME280;6725;48.112;11.604;2023-05-09T02:23:56;95104.22;;;9.26;100.00
13314;BME280;6725;48.112;11.604;2023-05-09T02:26:22;95067.63;;;9.27;100.00
13314;BME280;6725;48.112;11.604;2023-05-09T02:28:48;94996.00;;;9.30;100.00
13314;BME280;6725;48.112;11.604;2023-05-09T02:31:15;94972.69;;;9.26;100.00
13314;BME280;6725;48.112;11.604;2023-05-09T02:33:43;94956.34;;;9.26;100.00
13314;BME280;6725;48.112;11.604;2023-05-09T02:36:11;94935.75;;;9.21;100.00
13314;BME280;6725;48.112;11.604;2023-05-09T02:38:36;94908.97;;;9.16;100.00
13314;BME280;6725;48.112;11.604;2023-05-09T02:41:02;94886.03;;;9.14;100.00
13314;BME280;6725;48.112;11.604;2023-05-09T02:43:27;94849.84;;;9.13;100.00
13314;BME280;6725;48.112;11.604;2023-05-09T02:45:52;94828.88;;;9.10;100.00
13314;BME280;6725;48.112;11.604;2023-05-09T02:48:18;94803.88;;;9.15;100.00
13314;BME280;6725;48.112;11.604;2023-05-09T02:50:43;94782.94;;;9.12;100.00
13314;BME280;6725;48.112;11.604;2023-05-09T02:53:10;94634.31;;;9.11;100.00
13314;BME280;6725;48.112;11.604;2023-05-09T02:55:35;94610.28;;;9.06;100.00
13314;BME280;6725;48.112;11.604;2023-05-09T02:58:01;94596.19;;;9.11;100.00
13314;BME280;6725;48.112;11.604;2023-05-09T03:00:26;94596.19;;;9.11;100.00
13314;BME280;6725;48.112;11.604;2023-05-09T03:02:52;94580.63;;;9.12;100.00
13314;BME280;6725;48.112;11.604;2023-05-09T03:05:17;94568.94;;;9.11;100.00
13314;BME280;6725;48.112;11.604;2023-05-09T03:07:43;94556.47;;;9.14;100.00
13314;BME280;6725;48.112;11.604;2023-05-09T03:10:09;94561.13;;;9.13;100.00
13314;BME280;6725;48.112;11.604;2023-05-09T03:12:36;94547.16;;;9.11;100.00
13314;BME280;6725;48.112;11.604;2023-05-09T03:15:06;94541.38;;;9.09;100.00
13314;BME280;6725;48.112;11.604;2023-05-09T03:17:31;94529.28;;;9.10;100.00
13314;BME280;6725;48.112;11.604;2023-05-09T03:19:57;94524.19;;;9.12;100.00
13314;BME280;6725;48.112;11.604;2023-05-09T03:22:22;94509.81;;;9.12;100.00
13314;BME280;6725;48.112;11.604;2023-05-09T03:24:48;94502.47;;;9.09;100.00
13314;BME280;6725;48.112;11.604;2023-05-09T03:27:13;94496.59;;;9.10;100.00
13314;BME280;6725;48.112;11.604;2023-05-09T03:29:38;94488.44;;;9.10;100.00
13314;BME280;6725;48.112;11.604;2023-05-09T03:32:04;94474.78;;;9.14;100.00
13314;BME280;6725;48.112;11.604;2023-05-09T03:34:29;94477.50;;;9.14;100.00
13314;BME280;6725;48.112;11.604;2023-05-09T03:36:56;94470.91;;;9.11;100.00
13314;BME280;6725;48.112;11.604;2023-05-09T03:39:22;94466.22;;;9.12;100.00
13314;BME280;6725;48.112;11.604;2023-05-09T03:41:47;94467.00;;;9.12;100.00
13314;BME280;6725;48.112;11.604;2023-05-09T03:44:13;94457.66;;;9.13;100.00
13314;BME280;6725;48.112;11.604;2023-05-09T03:46:38;94451.72;;;9.18;100.00
13314;BME280;6725;48.112;11.604;2023-05-09T03:49:04;94456.13;;;9.12;100.00
13314;BME280;6725;48.112;11.604;2023-05-09T03:51:29;94465.44;;;9.11;100.00
13314;BME280;6725;48.112;11.604;2023-05-09T03:53:54;94477.94;;;9.09;100.00
13314;BME280;6725;48.112;11.604;2023-05-09T03:56:20;94480.97;;;9.14;100.00
13314;BME280;6725;48.112;11.604;2023-05-09T03:58:46;94488.91;;;9.05;100.00
13314;BME280;6725;48.112;11.604;2023-05-09T04:01:12;94487.06;;;9.22;100.00
13314;BME280;6725;48.112;11.604;2023-05-09T04:03:38;94504.81;;;9.30;100.00
13314;BME280;6725;48.112;11.604;2023-05-09T04:06:04;94530.34;;;9.16;100.00
13314;BME280;6725;48.112;11.604;2023-05-09T04:08:30;94544.53;;;9.04;100.00
13314;BME280;6725;48.112;11.604;2023-05-09T04:10:55;94548.00;;;9.08;100.00
13314;BME280;6725;48.112;11.604;2023-05-09T04:13:21;94555.09;;;9.02;100.00
13314;BME280;6725;48.112;11.604;2023-05-09T04:15:46;94561.91;;;9.14;100.00
13314;BME280;6725;48.112;11.604;2023-05-09T04:18:12;94565.53;;;9.30;100.00
13314;BME280;6725;48.112;11.604;2023-05-09T04:20:37;94587.66;;;9.55;100.00
13314;BME280;6725;48.112;11.604;2023-05-09T04:23:02;94605.63;;;9.95;100.00
13314;BME280;6725;48.112;11.604;2023-05-09T04:25:28;94631.63;;;10.43;100.00
13314;BME280;6725;48.112;11.604;2023-05-09T04:27:55;94728.84;;;10.76;100.00
13314;BME280;6725;48.112;11.604;2023-05-09T04:30:20;94886.63;;;11.11;100.00
13314;BME280;6725;48.112;11.604;2023-05-09T04:32:46;95005.41;;;11.49;100.00
13314;BME280;6725;48.112;11.604;2023-05-09T04:35:13;95134.31;;;11.74;100.00
13314;BME280;6725;48.112;11.604;2023-05-09T04:37:38;95223.16;;;12.15;100.00
13314;BME280;6725;48.112;11.604;2023-05-09T04:40:04;95296.75;;;12.56;100.00
13314;BME280;6725;48.112;11.604;2023-05-09T04:42:31;95368.59;;;13.13;100.00
13314;BME280;6725;48.112;11.604;2023-05-09T04:44:58;95423.09;;;13.30;100.00
13314;BME280;6725;48.112;11.604;2023-05-09T04:47:23;95444.38;;;13.46;100.00
13314;BME280;6725;48.112;11.604;2023-05-09T04:49:48;95452.34;;;13.60;100.00
13314;BME280;6725;48.112;11.604;2023-05-09T04:52:13;95473.16;;;13.77;100.00
13314;BME280;6725;48.112;11.604;2023-05-09T04:54:39;95480.25;;;13.98;100.00
13314;BME280;6725;48.112;11.604;2023-05-09T04:57:05;95484.31;;;13.70;100.00
13314;BME280;6725;48.112;11.604;2023-05-09T04:59:31;95483.97;;;13.22;100.00
13314;BME280;6725;48.112;11.604;2023-05-09T05:01:56;95482.41;;;13.44;100.00
13314;BME280;6725;48.112;11.604;2023-05-09T05:04:22;95484.47;;;13.17;100.00
13314;BME280;6725;48.112;11.604;2023-05-09T05:06:47;95492.66;;;12.94;100.00
13314;BME280;6725;48.112;11.604;2023-05-09T05:09:12;95481.59;;;13.01;100.00
13314;BME280;6725;48.112;11.604;2023-05-09T05:11:38;95476.00;;;13.08;100.00
13314;BME280;6725;48.112;11.604;2023-05-09T05:14:03;95479.06;;;13.56;100.00
13314;BME280;6725;48.112;11.604;2023-05-09T05:16:28;95479.69;;;13.64;100.00
13314;BME280;6725;48.112;11.604;2023-05-09T05:18:54;95491.56;;;14.19;100.00
13314;BME280;6725;48.112;11.604;2023-05-09T05:21:19;95490.78;;;14.74;100.00
13314;BME280;6725;48.112;11.604;2023-05-09T05:23:45;95493.63;;;15.82;100.00
13314;BME280;6725;48.112;11.604;2023-05-09T05:26:10;95506.47;;;16.01;100.00
13314;BME280;6725;48.112;11.604;2023-05-09T05:28:35;95508.00;;;16.31;100.00
13314;BME280;6725;48.112;11.604;2023-05-09T05:31:01;95513.94;;;15.56;100.00
13314;BME280;6725;48.112;11.604;2023-05-09T05:33:26;95521.06;;;15.86;100.00
13314;BME280;6725;48.112;11.604;2023-05-09T05:35:51;95512.03;;;16.14;100.00
13314;BME280;6725;48.112;11.604;2023-05-09T05:38:17;95509.84;;;16.21;100.00
13314;BME280;6725;48.112;11.604;2023-05-09T05:40:42;95520.94;;;17.13;100.00
13314;BME280;6725;48.112;11.604;2023-05-09T05:43:07;95525.56;;;17.53;100.00
13314;BME280;6725;48.112;11.604;2023-05-09T05:45:33;95524.78;;;17.28;100.00
13314;BME280;6725;48.112;11.604;2023-05-09T05:47:58;95513.78;;;17.74;100.00
13314;BME280;6725;48.112;11.604;2023-05-09T05:50:23;95524.41;;;18.10;100.00
13314;BME280;6725;48.112;11.604;2023-05-09T05:52:48;95521.66;;;18.31;100.00
13314;BME280;6725;48.112;11.604;2023-05-09T05:55:14;95518.22;;;18.40;100.00
13314;BME280;6725;48.112;11.604;2023-05-09T05:57:39;95515.78;;;18.94;100.00
13314;BME280;6725;48.112;11.604;2023-05-09T06:00:05;95512.84;;;18.67;100.00
13314;BME280;6725;48.112;11.604;2023-05-09T06:02:35;95516.50;;;19.56;100.00
13314;BME280;6725;48.112;11.604;2023-05-09T06:05:01;95504.00;;;19.51;100.00
13314;BME280;6725;48.112;11.604;2023-05-09T06:07:27;95508.03;;;18.89;100.00
13314;BME280;6725;48.112;11.604;2023-05-09T06:09:53;95502.88;;;18.26;100.00
13314;BME280;6725;48.112;11.604;2023-05-09T06:12:18;95501.78;;;19.28;100.00
13314;BME280;6725;48.112;11.604;2023-05-09T06:14:43;95510.63;;;19.44;100.00
13314;BME280;6725;48.112;11.604;2023-05-09T06:17:09;95498.19;;;19.58;100.00
13314;BME280;6725;48.112;11.604;2023-05-09T06:19:35;95505.78;;;20.03;100.00
13314;BME280;6725;48.112;11.604;2023-05-09T06:22:01;95492.16;;;21.27;100.00
13314;BME280;6725;48.112;11.604;2023-05-09T06:24:26;95497.84;;;21.00;100.00
13314;BME280;6725;48.112;11.604;2023-05-09T06:26:51;95489.34;;;20.86;100.00
13314;BME280;6725;48.112;11.604;2023-05-09T06:29:17;95484.66;;;18.90;100.00
13314;BME280;6725;48.112;11.604;2023-05-09T06:31:42;95481.47;;;21.02;100.00
13314;BME280;6725;48.112;11.604;2023-05-09T06:34:08;95486.41;;;21.07;100.00
13314;BME280;6725;48.112;11.604;2023-05-09T06:36:33;95492.16;;;20.95;100.00
13314;BME280;6725;48.112;11.604;2023-05-09T06:38:59;95481.00;;;21.92;97.03
13314;BME280;6725;48.112;11.604;2023-05-09T06:41:25;95480.50;;;22.17;95.22
13314;BME280;6725;48.112;11.604;2023-05-09T06:43:51;95469.34;;;22.56;97.80
13314;BME280;6725;48.112;11.604;2023-05-09T06:46:16;95472.72;;;22.74;85.98
13314;BME280;6725;48.112;11.604;2023-05-09T06:48:42;95471.56;;;22.52;95.46
13314;BME280;6725;48.112;11.604;2023-05-09T06:51:07;95475.41;;;23.81;84.24
13314;BME280;6725;48.112;11.604;2023-05-09T06:53:33;95467.59;;;23.65;81.64
13314;BME280;6725;48.112;11.604;2023-05-09T06:55:58;95473.13;;;23.80;84.03
13314;BME280;6725;48.112;11.604;2023-05-09T06:58:24;95468.03;;;23.44;85.06
13314;BME280;6725;48.112;11.604;2023-05-09T07:00:49;95472.16;;;22.99;82.33
13314;BME280;6725;48.112;11.604;2023-05-09T07:03:15;95465.59;;;24.26;79.72
13314;BME280;6725;48.112;11.604;2023-05-09T07:05:41;95465.47;;;25.11;72.09
13314;BME280;6725;48.112;11.604;2023-05-09T07:08:06;95469.03;;;24.61;73.68
13314;BME280;6725;48.112;11.604;2023-05-09T07:10:31;95469.34;;;24.43;76.41
13314;BME280;6725;48.112;11.604;2023-05-09T07:12:57;95467.81;;;24.42;77.91
13314;BME280;6725;48.112;11.604;2023-05-09T07:15:23;95470.31;;;23.60;87.55
13314;BME280;6725;48.112;11.604;2023-05-09T07:17:48;95459.97;;;22.68;94.35
13314;BME280;6725;48.112;11.604;2023-05-09T07:20:13;95460.03;;;22.59;99.14
13314;BME280;6725;48.112;11.604;2023-05-09T07:22:39;95449.81;;;22.26;100.00
13314;BME280;6725;48.112;11.604;2023-05-09T07:25:07;95447.50;;;21.07;100.00
13314;BME280;6725;48.112;11.604;2023-05-09T07:27:33;95437.53;;;21.24;100.00
13314;BME280;6725;48.112;11.604;2023-05-09T07:29:59;95438.66;;;22.26;100.00
13314;BME280;6725;48.112;11.604;2023-05-09T07:32:24;95438.50;;;23.03;100.00
13314;BME280;6725;48.112;11.604;2023-05-09T07:34:52;95433.94;;;24.09;91.20
13314;BME280;6725;48.112;11.604;2023-05-09T07:37:18;95431.00;;;23.78;88.71
13314;BME280;6725;48.112;11.604;2023-05-09T07:39:43;95431.38;;;23.31;95.52
13314;BME280;6725;48.112;11.604;2023-05-09T07:42:10;95435.31;;;23.10;97.76
13314;BME280;6725;48.112;11.604;2023-05-09T07:44:35;95435.28;;;22.75;96.17
13314;BME280;6725;48.112;11.604;2023-05-09T07:47:00;95427.75;;;23.10;97.63
13314;BME280;6725;48.112;11.604;2023-05-09T07:49:26;95426.25;;;23.64;94.26
13314;BME280;6725;48.112;11.604;2023-05-09T07:51:52;95417.06;;;23.78;94.25
13314;BME280;6725;48.112;11.604;2023-05-09T07:54:17;95411.59;;;24.80;90.51
13314;BME280;6725;48.112;11.604;2023-05-09T07:56:42;95406.28;;;25.55;80.75
13314;BME280;6725;48.112;11.604;2023-05-09T07:59:08;95411.84;;;25.13;81.33
13314;BME280;6725;48.112;11.604;2023-05-09T08:01:33;95411.44;;;24.63;84.56
13314;BME280;6725;48.112;11.604;2023-05-09T08:03:58;95405.38;;;24.45;89.66
13314;BME280;6725;48.112;11.604;2023-05-09T08:06:24;95409.44;;;23.78;95.59
13314;BME280;6725;48.112;11.604;2023-05-09T08:08:50;95401.53;;;22.88;100.00
13314;BME280;6725;48.112;11.604;2023-05-09T08:11:16;95396.47;;;23.21;97.81
13314;BME280;6725;48.112;11.604;2023-05-09T08:13:41;95390.69;;;22.90;100.00
13314;BME280;6725;48.112;11.604;2023-05-09T08:16:07;95388.47;;;22.94;100.00
13314;BME280;6725;48.112;11.604;2023-05-09T08:18:32;95376.88;;;23.50;100.00
13314;BME280;6725;48.112;11.604;2023-05-09T08:20:57;95383.75;;;24.14;95.65
13314;BME280;6725;48.112;11.604;2023-05-09T08:23:24;95374.72;;;24.25;91.29
13314;BME280;6725;48.112;11.604;2023-05-09T08:25:53;95379.09;;;24.82;89.06
13314;BME280;6725;48.112;11.604;2023-05-09T08:28:19;95376.09;;;26.45;78.12
13314;BME280;6725;48.112;11.604;2023-05-09T08:30:46;95384.28;;;27.31;70.36
13314;BME280;6725;48.112;11.604;2023-05-09T08:33:11;95373.84;;;28.05;67.91
13314;BME280;6725;48.112;11.604;2023-05-09T08:35:37;95373.84;;;26.99;74.02
13314;BME280;6725;48.112;11.604;2023-05-09T08:38:02;95369.00;;;28.00;74.55
13314;BME280;6725;48.112;11.604;2023-05-09T08:40:28;95361.16;;;28.75;69.11
13314;BME280;6725;48.112;11.604;2023-05-09T08:42:53;95362.53;;;28.98;63.43
13314;BME280;6725;48.112;11.604;2023-05-09T08:45:24;95363.19;;;28.80;59.89
13314;BME280;6725;48.112;11.604;2023-05-09T08:47:52;95359.25;;;28.59;62.56
13314;BME280;6725;48.112;11.604;2023-05-09T08:50:18;95357.09;;;27.83;64.92
13314;BME280;6725;48.112;11.604;2023-05-09T08:52:44;95348.00;;;28.12;68.10
13314;BME280;6725;48.112;11.604;2023-05-09T08:55:09;95347.25;;;28.88;64.37
13314;BME280;6725;48.112;11.604;2023-05-09T08:57:36;95342.69;;;28.85;64.58
13314;BME280;6725;48.112;11.604;2023-05-09T09:00:04;95344.66;;;29.49;57.92
13314;BME280;6725;48.112;11.604;2023-05-09T09:02:31;95336.69;;;27.77;63.81
13314;BME280;6725;48.112;11.604;2023-05-09T09:04:57;95336.28;;;27.51;66.17
13314;BME280;6725;48.112;11.604;2023-05-09T09:07:24;95328.19;;;27.09;67.85
13314;BME280;6725;48.112;11.604;2023-05-09T09:09:52;95324.09;;;26.99;69.93
13314;BME280;6725;48.112;11.604;2023-05-09T09:12:21;95320.25;;;27.98;64.44
13314;BME280;6725;48.112;11.604;2023-05-09T09:14:50;95320.53;;;26.27;72.77
13314;BME280;6725;48.112;11.604;2023-05-09T09:17:19;95318.84;;;25.71;75.51
13314;BME280;6725;48.112;11.604;2023-05-09T09:19:48;95310.38;;;26.90;73.17
13314;BME280;6725;48.112;11.604;2023-05-09T09:22:15;95316.47;;;26.50;74.57
13314;BME280;6725;48.112;11.604;2023-05-09T09:24:42;95308.28;;;25.97;79.11
13314;BME280;6725;48.112;11.604;2023-05-09T09:27:08;95307.19;;;27.43;71.76
13314;BME280;6725;48.112;11.604;2023-05-09T09:29:33;95301.25;;;28.20;67.00
13314;BME280;6725;48.112;11.604;2023-05-09T09:32:04;95300.72;;;28.57;67.98
13314;BME280;6725;48.112;11.604;2023-05-09T09:34:30;95298.31;;;29.26;63.61
13314;BME280;6725;48.112;11.604;2023-05-09T09:36:55;95300.53;;;28.09;64.66
13314;BME280;6725;48.112;11.604;2023-05-09T09:39:20;95292.34;;;27.59;67.41
13314;BME280;6725;48.112;11.604;2023-05-09T09:41:46;95284.94;;;27.62;68.16
13314;BME280;6725;48.112;11.604;2023-05-09T09:44:22;95270.66;;;28.47;63.95
13314;BME280;6725;48.112;11.604;2023-05-09T09:46:52;95263.94;;;28.55;64.49
13314;BME280;6725;48.112;11.604;2023-05-09T09:49:23;95265.13;;;29.19;61.26
13314;BME280;6725;48.112;11.604;2023-05-09T09:51:53;95276.88;;;28.93;60.71
13314;BME280;6725;48.112;11.604;2023-05-09T09:54:20;95275.53;;;28.76;63.79
13314;BME280;6725;48.112;11.604;2023-05-09T09:56:47;95257.63;;;28.73;65.92
13314;BME280;6725;48.112;11.604;2023-05-09T09:59:15;95257.56;;;28.55;64.25
13314;BME280;6725;48.112;11.604;2023-05-09T10:02:06;95259.66;;;26.06;72.26
13314;BME280;6725;48.112;11.604;2023-05-09T10:04:34;95244.81;;;27.04;74.70
13314;BME280;6725;48.112;11.604;2023-05-09T10:07:01;95243.72;;;27.86;68.28
13314;BME280;6725;48.112;11.604;2023-05-09T10:09:27;95239.06;;;28.65;65.37
13314;BME280;6725;48.112;11.604;2023-05-09T10:11:55;95237.06;;;28.60;65.91
13314;BME280;6725;48.112;11.604;2023-05-09T10:14:22;95231.47;;;28.24;64.81
13314;BME280;6725;48.112;11.604;2023-05-09T10:16:50;95233.72;;;27.96;69.63
13314;BME280;6725;48.112;11.604;2023-05-09T10:19:20;95230.81;;;25.61;81.88
13314;BME280;6725;48.112;11.604;2023-05-09T10:21:54;95217.28;;;27.65;70.88
13314;BME280;6725;48.112;11.604;2023-05-09T10:24:30;95220.56;;;27.23;73.10
13314;BME280;6725;48.112;11.604;2023-05-09T10:27:01;95209.03;;;27.78;72.18
13314;BME280;6725;48.112;11.604;2023-05-09T10:29:33;95210.78;;;26.34;77.13
13314;BME280;6725;48.112;11.604;2023-05-09T10:32:05;95192.34;;;27.56;71.25
13314;BME280;6725;48.112;11.604;2023-05-09T10:34:36;95207.47;;;27.37;71.23
13314;BME280;6725;48.112;11.604;2023-05-09T10:37:04;95207.84;;;27.11;69.45
13314;BME280;6725;48.112;11.604;2023-05-09T10:39:31;95190.09;;;25.60;77.60
13314;BME280;6725;48.112;11.604;2023-05-09T10:41:57;95200.72;;;26.99;73.66
13314;BME280;6725;48.112;11.604;2023-05-09T10:44:23;95196.75;;;26.56;79.18
13314;BME280;6725;48.112;11.604;2023-05-09T10:46:49;95186.31;;;26.46;79.00
13314;BME280;6725;48.112;11.604;2023-05-09T10:49:16;95178.91;;;25.77;80.89
13314;BME280;6725;48.112;11.604;2023-05-09T10:51:42;95175.25;;;26.97;74.96
13314;BME280;6725;48.112;11.604;2023-05-09T10:54:14;95177.69;;;26.22;77.46
13314;BME280;6725;48.112;11.604;2023-05-09T10:56:49;95168.03;;;26.06;78.22
13314;BME280;6725;48.112;11.604;2023-05-09T10:59:32;95165.44;;;26.41;77.20
13314;BME280;6725;48.112;11.604;2023-05-09T11:01:58;95161.06;;;26.68;75.71
13314;BME280;6725;48.112;11.604;2023-05-09T11:04:30;95164.41;;;26.44;76.27
13314;BME280;6725;48.112;11.604;2023-05-09T11:06:57;95146.09;;;26.27;77.93
13314;BME280;6725;48.112;11.604;2023-05-09T11:09:23;95151.84;;;26.89;76.19
13314;BME280;6725;48.112;11.604;2023-05-09T11:11:56;95150.19;;;25.93;77.28
13314;BME280;6725;48.112;11.604;2023-05-09T11:17:04;95136.09;;;26.75;73.05
13314;BME280;6725;48.112;11.604;2023-05-09T11:22:18;95112.53;;;25.83;82.24
13314;BME280;6725;48.112;11.604;2023-05-09T11:25:04;95110.88;;;24.46;91.24
13314;BME280;6725;48.112;11.604;2023-05-09T11:27:42;95115.03;;;24.61;93.88
13314;BME280;6725;48.112;11.604;2023-05-09T11:30:10;95106.94;;;24.63;91.38
13314;BME280;6725;48.112;11.604;2023-05-09T11:32:52;95097.97;;;24.59;94.93
13314;BME280;6725;48.112;11.604;2023-05-09T11:35:20;95094.13;;;23.98;98.73
13314;BME280;6725;48.112;11.604;2023-05-09T11:37:59;95097.88;;;23.64;100.00
13314;BME280;6725;48.112;11.604;2023-05-09T11:40:25;95100.00;;;24.06;100.00
13314;BME280;6725;48.112;11.604;2023-05-09T11:42:53;95077.53;;;23.53;100.00
13314;BME280;6725;48.112;11.604;2023-05-09T11:45:20;95074.06;;;23.94;100.00
13314;BME280;6725;48.112;11.604;2023-05-09T11:47:47;95076.16;;;23.43;100.00
13314;BME280;6725;48.112;11.604;2023-05-09T11:50:14;95076.06;;;23.32;100.00
13314;BME280;6725;48.112;11.604;2023-05-09T11:52:39;95078.88;;;22.61;100.00
13314;BME280;6725;48.112;11.604;2023-05-09T11:55:10;95082.16;;;22.59;100.00
13314;BME280;6725;48.112;11.604;2023-05-09T11:57:45;95064.25;;;22.66;100.00
13314;BME280;6725;48.112;11.604;2023-05-09T12:00:14;95060.47;;;22.69;100.00
13314;BME280;6725;48.112;11.604;2023-05-09T12:02:42;95087.59;;;22.33;100.00
13314;BME280;6725;48.112;11.604;2023-05-09T12:05:13;95064.41;;;22.57;100.00
13314;BME280;6725;48.112;11.604;2023-05-09T12:07:39;95064.66;;;22.18;100.00
13314;BME280;6725;48.112;11.604;2023-05-09T12:10:10;95057.84;;;22.39;100.00
13314;BME280;6725;48.112;11.604;2023-05-09T12:12:42;95053.47;;;21.78;100.00
13314;BME280;6725;48.112;11.604;2023-05-09T12:15:08;95050.66;;;21.44;100.00
13314;BME280;6725;48.112;11.604;2023-05-09T12:17:34;95030.34;;;21.87;100.00
13314;BME280;6725;48.112;11.604;2023-05-09T12:20:00;95028.53;;;21.84;100.00
13314;BME280;6725;48.112;11.604;2023-05-09T12:22:28;95027.66;;;22.12;100.00
13314;BME280;6725;48.112;11.604;2023-05-09T12:24:55;95018.19;;;21.84;100.00
13314;BME280;6725;48.112;11.604;2023-05-09T12:27:20;95020.22;;;21.69;100.00
13314;BME280;6725;48.112;11.604;2023-05-09T12:29:46;95015.94;;;22.08;100.00
13314;BME280;6725;48.112;11.604;2023-05-09T12:32:15;95004.97;;;22.19;100.00
13314;BME280;6725;48.112;11.604;2023-05-09T12:34:41;94996.34;;;21.77;100.00
13314;BME280;6725;48.112;11.604;2023-05-09T12:37:18;94994.50;;;21.54;100.00
13314;BME280;6725;48.112;11.604;2023-05-09T12:39:59;94994.97;;;21.87;100.00
13314;BME280;6725;48.112;11.604;2023-05-09T12:42:32;94992.72;;;22.52;100.00
13314;BME280;6725;48.112;11.604;2023-05-09T12:44:58;94997.69;;;22.22;100.00
13314;BME280;6725;48.112;11.604;2023-05-09T12:47:30;94981.72;;;22.42;100.00
13314;BME280;6725;48.112;11.604;2023-05-09T12:50:00;94995.63;;;22.42;100.00
13314;BME280;6725;48.112;11.604;2023-05-09T12:52:32;94973.66;;;22.24;100.00
13314;BME280;6725;48.112;11.604;2023-05-09T12:55:04;94973.19;;;22.72;100.00
13314;BME280;6725;48.112;11.604;2023-05-09T12:57:30;94981.69;;;22.63;100.00
13314;BME280;6725;48.112;11.604;2023-05-09T13:00:00;94959.09;;;22.35;100.00
13314;BME280;6725;48.112;11.604;2023-05-09T13:02:27;94958.25;;;21.83;100.00
13314;BME280;6725;48.112;11.604;2023-05-09T13:05:08;94953.34;;;22.18;100.00
13314;BME280;6725;48.112;11.604;2023-05-09T13:10:12;94947.00;;;21.92;100.00
13314;BME280;6725;48.112;11.604;2023-05-09T13:12:39;94938.03;;;22.28;100.00